sensor_id;sensor_type;location;lat;lon;timestamp;pressure;altitude;pressure_sealevel;temperature;humidity
58668;BME280;59852;43.086;25.634;2023-02-28T00:00:03;99610.19;;;7.01;86.83
58668;BME280;59852;43.086;25.634;2023-02-28T00:02:38;99618.84;;;7.02;87.65
58668;BME280;59852;43.086;25.634;2023-02-28T00:05:04;99622.44;;;6.79;88.70
58668;BME280;59852;43.086;25.634;2023-02-28T00:07:30;99610.38;;;7.17;87.27
58668;BME280;59852;43.086;25.634;2023-02-28T00:09:56;99621.75;;;6.74;88.47
58668;BME280;59852;43.086;25.634;2023-02-28T00:12:21;99633.03;;;6.52;88.96
58668;BME280;59852;43.086;25.634;2023-02-28T00:14:46;99627.78;;;6.54;89.44
58668;BME280;59852;43.086;25.634;2023-02-28T00:17:12;99624.75;;;6.85;87.64
58668;BME280;59852;43.086;25.634;2023-02-28T00:19:37;99628.13;;;7.07;86.42
58668;BME280;59852;43.086;25.634;2023-02-28T00:22:02;99636.13;;;6.82;86.24
58668;BME280;59852;43.086;25.634;2023-02-28T00:24:28;99641.47;;;6.79;87.66
58668;BME280;59852;43.086;25.634;2023-02-28T00:26:53;99650.38;;;7.14;86.63
58668;BME280;59852;43.086;25.634;2023-02-28T00:29:19;99640.63;;;7.19;85.19
58668;BME280;59852;43.086;25.634;2023-02-28T00:31:44;99640.16;;;7.30;85.48
58668;BME280;59852;43.086;25.634;2023-02-28T00:34:09;99637.69;;;7.27;85.41
58668;BME280;59852;43.086;25.634;2023-02-28T00:36:35;99640.72;;;7.18;84.94
58668;BME280;59852;43.086;25.634;2023-02-28T00:39:00;99630.31;;;7.37;85.52
58668;BME280;59852;43.086;25.634;2023-02-28T00:41:25;99628.88;;;7.50;84.48
58668;BME280;59852;43.086;25.634;2023-02-28T00:43:51;99616.06;;;7.45;84.42
58668;BME280;59852;43.086;25.634;2023-02-28T00:46:16;99626.88;;;7.36;84.52
58668;BME280;59852;43.086;25.634;2023-02-28T00:48:41;99618.03;;;7.40;84.81
58668;BME280;59852;43.086;25.634;2023-02-28T00:51:07;99625.31;;;7.32;85.02
58668;BME280;59852;43.086;25.634;2023-02-28T00:53:32;99632.81;;;7.19;85.28
58668;BME280;59852;43.086;25.634;2023-02-28T00:55:58;99635.63;;;7.15;86.01
58668;BME280;59852;43.086;25.634;2023-02-28T00:58:23;99645.47;;;7.27;86.13
58668;BME280;59852;43.086;25.634;2023-02-28T01:00:50;99641.72;;;7.34;85.88
58668;BME280;59852;43.086;25.634;2023-02-28T01:03:16;99643.13;;;7.41;85.75
58668;BME280;59852;43.086;25.634;2023-02-28T01:05:42;99630.53;;;7.32;85.61
58668;BME280;59852;43.086;25.634;2023-02-28T01:08:07;99635.88;;;7.29;85.29
58668;BME280;59852;43.086;25.634;2023-02-28T01:10:33;99630.47;;;6.73;87.78
58668;BME280;59852;43.086;25.634;2023-02-28T01:12:58;99623.13;;;6.82;87.78
58668;BME280;59852;43.086;25.634;2023-02-28T01:15:24;99609.50;;;7.18;86.46
58668;BME280;59852;43.086;25.634;2023-02-28T01:17:49;99604.75;;;7.26;85.49
58668;BME280;59852;43.086;25.634;2023-02-28T01:20:14;99598.66;;;7.27;84.91
58668;BME280;59852;43.086;25.634;2023-02-28T01:22:40;99611.94;;;7.21;84.79
58668;BME280;59852;43.086;25.634;2023-02-28T01:25:05;99594.00;;;7.15;85.53
58668;BME280;59852;43.086;25.634;2023-02-28T01:27:31;99588.97;;;7.31;84.73
58668;BME280;59852;43.086;25.634;2023-02-28T01:29:56;99602.22;;;7.25;84.79
58668;BME280;59852;43.086;25.634;2023-02-28T01:32:21;99602.44;;;7.20;84.77
58668;BME280;59852;43.086;25.634;2023-02-28T01:34:46;99607.66;;;7.20;85.79
58668;BME280;59852;43.086;25.634;2023-02-28T01:37:12;99613.09;;;7.34;85.43
58668;BME280;59852;43.086;25.634;2023-02-28T01:39:37;99596.91;;;7.28;84.81
58668;BME280;59852;43.086;25.634;2023-02-28T01:42:02;99600.69;;;7.21;85.73
58668;BME280;59852;43.086;25.634;2023-02-28T01:47:12;99594.06;;;7.13;85.29
58668;BME280;59852;43.086;25.634;2023-02-28T01:49:38;99604.91;;;7.23;85.77
58668;BME280;59852;43.086;25.634;2023-02-28T01:52:03;99611.50;;;7.11;85.34
58668;BME280;59852;43.086;25.634;2023-02-28T01:54:32;99615.84;;;7.11;85.04
58668;BME280;59852;43.086;25.634;2023-02-28T01:57:09;99619.63;;;7.04;86.21
58668;BME280;59852;43.086;25.634;2023-02-28T01:59:37;99621.06;;;7.11;85.32
58668;BME280;59852;43.086;25.634;2023-02-28T02:02:05;99624.81;;;7.04;84.85
58668;BME280;59852;43.086;25.634;2023-02-28T02:04:32;99621.06;;;7.11;85.45
58668;BME280;59852;43.086;25.634;2023-02-28T02:07:00;99616.63;;;7.13;84.77
58668;BME280;59852;43.086;25.634;2023-02-28T02:09:26;99617.22;;;7.19;84.28
58668;BME280;59852;43.086;25.634;2023-02-28T02:11:51;99610.81;;;7.27;84.42
58668;BME280;59852;43.086;25.634;2023-02-28T02:19:32;99625.50;;;7.09;85.50
58668;BME280;59852;43.086;25.634;2023-02-28T02:32:54;99645.94;;;7.16;84.50
58668;BME280;59852;43.086;25.634;2023-02-28T02:40:42;99645.94;;;7.16;84.11
58668;BME280;59852;43.086;25.634;2023-02-28T02:43:13;99643.94;;;7.03;84.26
58668;BME280;59852;43.086;25.634;2023-02-28T02:48:36;99654.59;;;7.17;83.95
58668;BME280;59852;43.086;25.634;2023-02-28T02:51:05;99656.69;;;6.88;83.97
58668;BME280;59852;43.086;25.634;2023-02-28T02:53:38;99664.81;;;7.01;83.79
58668;BME280;59852;43.086;25.634;2023-02-28T02:56:05;99667.94;;;6.89;83.83
58668;BME280;59852;43.086;25.634;2023-02-28T02:58:34;99662.22;;;7.01;83.66
58668;BME280;59852;43.086;25.634;2023-02-28T03:01:01;99665.00;;;6.97;82.86
58668;BME280;59852;43.086;25.634;2023-02-28T03:03:27;99663.44;;;6.93;83.79
58668;BME280;59852;43.086;25.634;2023-02-28T03:05:58;99671.72;;;7.02;82.92
58668;BME280;59852;43.086;25.634;2023-02-28T03:08:24;99672.31;;;7.09;83.08
58668;BME280;59852;43.086;25.634;2023-02-28T03:10:50;99676.59;;;7.10;83.54
58668;BME280;59852;43.086;25.634;2023-02-28T03:16:42;99668.81;;;7.10;83.49
58668;BME280;59852;43.086;25.634;2023-02-28T03:21:22;99678.59;;;7.03;83.24
58668;BME280;59852;43.086;25.634;2023-02-28T03:26:19;99681.53;;;6.96;83.67
58668;BME280;59852;43.086;25.634;2023-02-28T03:34:05;99683.41;;;6.92;83.06
58668;BME280;59852;43.086;25.634;2023-02-28T03:36:51;99693.22;;;6.85;82.58
58668;BME280;59852;43.086;25.634;2023-02-28T03:42:29;99680.50;;;7.00;83.10
58668;BME280;59852;43.086;25.634;2023-02-28T03:47:26;99675.22;;;7.01;82.92
58668;BME280;59852;43.086;25.634;2023-02-28T03:49:54;99671.13;;;6.96;83.25
58668;BME280;59852;43.086;25.634;2023-02-28T03:52:23;99672.22;;;6.90;83.22
58668;BME280;59852;43.086;25.634;2023-02-28T03:54:52;99674.00;;;6.89;83.65
58668;BME280;59852;43.086;25.634;2023-02-28T03:57:26;99676.38;;;6.94;82.61
58668;BME280;59852;43.086;25.634;2023-02-28T03:59:58;99670.09;;;7.00;82.29
58668;BME280;59852;43.086;25.634;2023-02-28T04:02:25;99667.47;;;6.79;82.45
58668;BME280;59852;43.086;25.634;2023-02-28T04:04:50;99663.53;;;6.91;82.71
58668;BME280;59852;43.086;25.634;2023-02-28T04:07:16;99664.28;;;6.93;82.52
58668;BME280;59852;43.086;25.634;2023-02-28T04:09:42;99656.09;;;6.82;82.16
58668;BME280;59852;43.086;25.634;2023-02-28T04:12:07;99659.69;;;6.57;83.96
58668;BME280;59852;43.086;25.634;2023-02-28T04:14:32;99667.25;;;6.42;85.26
58668;BME280;59852;43.086;25.634;2023-02-28T04:16:58;99666.03;;;6.28;85.58
58668;BME280;59852;43.086;25.634;2023-02-28T04:19:23;99674.88;;;6.46;84.84
58668;BME280;59852;43.086;25.634;2023-02-28T04:21:52;99680.25;;;6.42;85.82
58668;BME280;59852;43.086;25.634;2023-02-28T04:24:22;99687.34;;;6.15;85.45
58668;BME280;59852;43.086;25.634;2023-02-28T04:26:48;99691.41;;;6.66;84.49
58668;BME280;59852;43.086;25.634;2023-02-28T04:29:17;99685.56;;;6.60;83.74
58668;BME280;59852;43.086;25.634;2023-02-28T04:31:43;99676.22;;;6.77;83.27
58668;BME280;59852;43.086;25.634;2023-02-28T04:34:09;99682.09;;;6.16;85.00
58668;BME280;59852;43.086;25.634;2023-02-28T04:36:34;99680.09;;;6.67;83.26
58668;BME280;59852;43.086;25.634;2023-02-28T04:38:59;99673.03;;;6.48;83.97
58668;BME280;59852;43.086;25.634;2023-02-28T04:41:25;99674.56;;;6.54;84.45
58668;BME280;59852;43.086;25.634;2023-02-28T04:43:51;99674.19;;;6.19;84.64
58668;BME280;59852;43.086;25.634;2023-02-28T04:46:17;99682.88;;;6.18;85.22
58668;BME280;59852;43.086;25.634;2023-02-28T04:48:43;99682.38;;;6.54;84.47
58668;BME280;59852;43.086;25.634;2023-02-28T04:51:10;99689.06;;;6.16;84.86
58668;BME280;59852;43.086;25.634;2023-02-28T04:53:36;99686.09;;;6.47;84.10
58668;BME280;59852;43.086;25.634;2023-02-28T04:56:02;99693.44;;;6.59;83.28
58668;BME280;59852;43.086;25.634;2023-02-28T04:58:27;99693.38;;;6.60;83.25
58668;BME280;59852;43.086;25.634;2023-02-28T05:00:53;99686.88;;;6.49;83.66
58668;BME280;59852;43.086;25.634;2023-02-28T05:03:19;99688.63;;;6.48;84.22
58668;BME280;59852;43.086;25.634;2023-02-28T05:05:45;99695.97;;;6.60;83.88
58668;BME280;59852;43.086;25.634;2023-02-28T05:08:11;99693.66;;;6.75;82.53
58668;BME280;59852;43.086;25.634;2023-02-28T05:10:36;99695.28;;;6.77;81.74
58668;BME280;59852;43.086;25.634;2023-02-28T05:13:01;99698.69;;;6.79;81.95
58668;BME280;59852;43.086;25.634;2023-02-28T05:15:27;99701.78;;;6.87;82.01
58668;BME280;59852;43.086;25.634;2023-02-28T05:17:52;99706.47;;;6.79;81.76
58668;BME280;59852;43.086;25.634;2023-02-28T05:20:17;99718.25;;;6.88;81.70
58668;BME280;59852;43.086;25.634;2023-02-28T05:22:43;99710.44;;;6.88;81.64
58668;BME280;59852;43.086;25.634;2023-02-28T05:25:10;99714.50;;;6.95;81.80
58668;BME280;59852;43.086;25.634;2023-02-28T05:27:37;99711.09;;;6.93;81.75
58668;BME280;59852;43.086;25.634;2023-02-28T05:30:02;99701.63;;;6.92;81.62
58668;BME280;59852;43.086;25.634;2023-02-28T05:32:29;99705.13;;;6.91;81.97
58668;BME280;59852;43.086;25.634;2023-02-28T05:34:54;99700.47;;;6.77;82.20
58668;BME280;59852;43.086;25.634;2023-02-28T05:37:20;99702.47;;;6.93;81.69
58668;BME280;59852;43.086;25.634;2023-02-28T05:39:45;99695.81;;;6.85;81.92
58668;BME280;59852;43.086;25.634;2023-02-28T05:42:11;99702.97;;;6.80;82.23
58668;BME280;59852;43.086;25.634;2023-02-28T05:44:36;99711.84;;;6.75;82.35
58668;BME280;59852;43.086;25.634;2023-02-28T05:47:02;99719.00;;;6.70;82.68
58668;BME280;59852;43.086;25.634;2023-02-28T05:49:27;99728.00;;;6.16;84.74
58668;BME280;59852;43.086;25.634;2023-02-28T05:51:52;99729.84;;;6.57;83.83
58668;BME280;59852;43.086;25.634;2023-02-28T05:54:18;99728.66;;;6.66;82.75
58668;BME280;59852;43.086;25.634;2023-02-28T05:56:43;99725.41;;;6.61;83.49
58668;BME280;59852;43.086;25.634;2023-02-28T05:59:14;99726.00;;;6.68;83.12
58668;BME280;59852;43.086;25.634;2023-02-28T06:01:43;99731.13;;;6.91;82.56
58668;BME280;59852;43.086;25.634;2023-02-28T06:04:17;99724.72;;;6.56;82.95
58668;BME280;59852;43.086;25.634;2023-02-28T06:06:47;99731.66;;;6.77;83.01
58668;BME280;59852;43.086;25.634;2023-02-28T06:09:13;99724.97;;;6.94;82.37
58668;BME280;59852;43.086;25.634;2023-02-28T06:11:38;99727.69;;;6.90;82.13
58668;BME280;59852;43.086;25.634;2023-02-28T06:14:04;99723.13;;;6.96;82.28
58668;BME280;59852;43.086;25.634;2023-02-28T06:16:30;99721.47;;;7.15;81.75
58668;BME280;59852;43.086;25.634;2023-02-28T06:18:57;99724.84;;;6.75;81.89
58668;BME280;59852;43.086;25.634;2023-02-28T06:21:23;99724.97;;;6.72;83.43
58668;BME280;59852;43.086;25.634;2023-02-28T06:23:48;99741.28;;;6.75;82.90
58668;BME280;59852;43.086;25.634;2023-02-28T06:26:13;99746.06;;;6.64;83.33
58668;BME280;59852;43.086;25.634;2023-02-28T06:28:39;99749.16;;;6.28;85.28
58668;BME280;59852;43.086;25.634;2023-02-28T06:31:08;99755.72;;;6.39;85.80
58668;BME280;59852;43.086;25.634;2023-02-28T06:33:34;99756.09;;;6.51;84.22
58668;BME280;59852;43.086;25.634;2023-02-28T06:36:00;99744.88;;;6.51;84.49
58668;BME280;59852;43.086;25.634;2023-02-28T06:38:25;99749.13;;;6.30;85.79
58668;BME280;59852;43.086;25.634;2023-02-28T06:40:54;99750.13;;;6.71;84.13
58668;BME280;59852;43.086;25.634;2023-02-28T06:43:19;99745.34;;;6.82;83.78
58668;BME280;59852;43.086;25.634;2023-02-28T06:45:44;99740.38;;;6.98;83.25
58668;BME280;59852;43.086;25.634;2023-02-28T06:48:10;99745.69;;;6.95;82.82
58668;BME280;59852;43.086;25.634;2023-02-28T06:50:35;99731.78;;;6.96;82.35
58668;BME280;59852;43.086;25.634;2023-02-28T06:53:01;99745.78;;;7.14;81.94
58668;BME280;59852;43.086;25.634;2023-02-28T06:55:27;99743.09;;;6.95;82.64
58668;BME280;59852;43.086;25.634;2023-02-28T06:57:52;99751.44;;;7.03;82.24
58668;BME280;59852;43.086;25.634;2023-02-28T07:00:19;99749.06;;;6.97;83.10
58668;BME280;59852;43.086;25.634;2023-02-28T07:02:45;99747.41;;;7.16;82.12
58668;BME280;59852;43.086;25.634;2023-02-28T07:05:12;99748.31;;;7.15;82.06
58668;BME280;59852;43.086;25.634;2023-02-28T07:07:37;99746.63;;;7.14;82.21
58668;BME280;59852;43.086;25.634;2023-02-28T07:10:05;99745.53;;;7.00;82.17
58668;BME280;59852;43.086;25.634;2023-02-28T07:12:31;99748.41;;;7.14;82.17
58668;BME280;59852;43.086;25.634;2023-02-28T07:14:56;99744.25;;;7.10;81.48
58668;BME280;59852;43.086;25.634;2023-02-28T07:17:21;99741.13;;;7.22;80.95
58668;BME280;59852;43.086;25.634;2023-02-28T07:19:47;99738.19;;;7.09;82.46
58668;BME280;59852;43.086;25.634;2023-02-28T07:22:12;99739.59;;;7.38;81.23
58668;BME280;59852;43.086;25.634;2023-02-28T07:24:37;99734.75;;;7.29;80.75
58668;BME280;59852;43.086;25.634;2023-02-28T07:27:03;99737.69;;;7.22;81.45
58668;BME280;59852;43.086;25.634;2023-02-28T07:29:28;99737.28;;;7.31;80.70
58668;BME280;59852;43.086;25.634;2023-02-28T07:31:54;99733.00;;;7.30;81.61
58668;BME280;59852;43.086;25.634;2023-02-28T07:34:20;99731.88;;;7.35;80.56
58668;BME280;59852;43.086;25.634;2023-02-28T07:36:45;99733.00;;;7.50;80.31
58668;BME280;59852;43.086;25.634;2023-02-28T07:39:10;99738.97;;;7.52;80.57
58668;BME280;59852;43.086;25.634;2023-02-28T07:41:36;99742.69;;;7.46;80.99
58668;BME280;59852;43.086;25.634;2023-02-28T07:44:08;99750.09;;;7.35;80.89
58668;BME280;59852;43.086;25.634;2023-02-28T07:46:33;99759.09;;;7.28;81.71
58668;BME280;59852;43.086;25.634;2023-02-28T07:49:01;99760.72;;;6.88;83.29
58668;BME280;59852;43.086;25.634;2023-02-28T07:51:28;99768.97;;;7.20;82.09
58668;BME280;59852;43.086;25.634;2023-02-28T07:53:53;99764.53;;;7.22;82.07
58668;BME280;59852;43.086;25.634;2023-02-28T07:56:19;99766.75;;;7.31;81.65
58668;BME280;59852;43.086;25.634;2023-02-28T07:58:44;99770.16;;;7.33;81.03
58668;BME280;59852;43.086;25.634;2023-02-28T08:01:10;99769.00;;;7.40;80.64
58668;BME280;59852;43.086;25.634;2023-02-28T08:03:35;99776.47;;;7.48;80.41
58668;BME280;59852;43.086;25.634;2023-02-28T08:06:02;99782.84;;;7.41;80.70
58668;BME280;59852;43.086;25.634;2023-02-28T08:08:28;99782.97;;;7.38;81.00
58668;BME280;59852;43.086;25.634;2023-02-28T08:10:59;99787.38;;;7.36;81.22
58668;BME280;59852;43.086;25.634;2023-02-28T08:13:25;99783.31;;;7.51;80.52
58668;BME280;59852;43.086;25.634;2023-02-28T08:15:52;99778.16;;;7.49;79.64
58668;BME280;59852;43.086;25.634;2023-02-28T08:18:18;99782.06;;;7.39;80.41
58668;BME280;59852;43.086;25.634;2023-02-28T08:20:43;99787.31;;;7.37;79.95
58668;BME280;59852;43.086;25.634;2023-02-28T08:23:08;99779.97;;;7.47;79.89
58668;BME280;59852;43.086;25.634;2023-02-28T08:25:33;99782.47;;;7.50;80.05
58668;BME280;59852;43.086;25.634;2023-02-28T08:27:59;99781.63;;;7.50;80.14
58668;BME280;59852;43.086;25.634;2023-02-28T08:30:24;99782.00;;;7.40;80.71
58668;BME280;59852;43.086;25.634;2023-02-28T08:32:49;99778.28;;;7.46;80.66
58668;BME280;59852;43.086;25.634;2023-02-28T08:35:15;99778.47;;;7.41;80.33
58668;BME280;59852;43.086;25.634;2023-02-28T08:37:40;99780.69;;;7.51;79.73
58668;BME280;59852;43.086;25.634;2023-02-28T08:40:06;99768.91;;;7.62;79.66
58668;BME280;59852;43.086;25.634;2023-02-28T08:42:31;99771.72;;;7.78;79.77
58668;BME280;59852;43.086;25.634;2023-02-28T08:44:57;99774.25;;;7.59;79.44
58668;BME280;59852;43.086;25.634;2023-02-28T08:47:22;99773.34;;;7.60;79.97
58668;BME280;59852;43.086;25.634;2023-02-28T08:49:47;99768.91;;;7.83;79.07
58668;BME280;59852;43.086;25.634;2023-02-28T08:52:13;99775.16;;;7.79;79.56
58668;BME280;59852;43.086;25.634;2023-02-28T08:54:38;99774.38;;;7.76;79.96
58668;BME280;59852;43.086;25.634;2023-02-28T08:57:03;99779.53;;;7.58;80.60
58668;BME280;59852;43.086;25.634;2023-02-28T08:59:29;99780.44;;;7.57;80.01
58668;BME280;59852;43.086;25.634;2023-02-28T09:01:54;99784.53;;;7.83;79.09
58668;BME280;59852;43.086;25.634;2023-02-28T09:04:20;99774.19;;;7.81;79.77
58668;BME280;59852;43.086;25.634;2023-02-28T09:06:45;99777.03;;;7.75;79.82
58668;BME280;59852;43.086;25.634;2023-02-28T09:09:11;99778.06;;;7.91;79.02
58668;BME280;59852;43.086;25.634;2023-02-28T09:11:36;99777.41;;;8.07;78.39
58668;BME280;59852;43.086;25.634;2023-02-28T09:14:02;99779.94;;;8.08;78.75
58668;BME280;59852;43.086;25.634;2023-02-28T09:16:28;99784.13;;;7.92;79.45
58668;BME280;59852;43.086;25.634;2023-02-28T09:18:54;99782.91;;;7.80;80.74
58668;BME280;59852;43.086;25.634;2023-02-28T09:21:19;99787.50;;;7.94;79.29
58668;BME280;59852;43.086;25.634;2023-02-28T09:23:45;99787.06;;;7.84;79.14
58668;BME280;59852;43.086;25.634;2023-02-28T09:26:14;99788.25;;;7.77;79.77
58668;BME280;59852;43.086;25.634;2023-02-28T09:28:40;99792.72;;;7.73;79.74
58668;BME280;59852;43.086;25.634;2023-02-28T09:31:05;99794.34;;;7.76;79.42
58668;BME280;59852;43.086;25.634;2023-02-28T09:33:31;99785.13;;;7.89;79.12
58668;BME280;59852;43.086;25.634;2023-02-28T09:36:00;99791.31;;;7.87;78.68
58668;BME280;59852;43.086;25.634;2023-02-28T09:38:25;99787.56;;;7.92;79.36
58668;BME280;59852;43.086;25.634;2023-02-28T09:40:52;99787.50;;;7.94;78.93
58668;BME280;59852;43.086;25.634;2023-02-28T09:43:20;99795.25;;;7.95;78.47
58668;BME280;59852;43.086;25.634;2023-02-28T09:46:11;99795.31;;;7.94;78.89
58668;BME280;59852;43.086;25.634;2023-02-28T09:48:33;99794.06;;;8.02;78.27
58668;BME280;59852;43.086;25.634;2023-02-28T09:51:04;99800.34;;;7.98;78.93
58668;BME280;59852;43.086;25.634;2023-02-28T09:53:31;99800.94;;;7.85;79.95
58668;BME280;59852;43.086;25.634;2023-02-28T09:55:59;99792.84;;;7.91;79.96
58668;BME280;59852;43.086;25.634;2023-02-28T09:58:28;99796.53;;;8.05;79.89
58668;BME280;59852;43.086;25.634;2023-02-28T10:00:59;99797.19;;;8.11;79.03
58668;BME280;59852;43.086;25.634;2023-02-28T10:06:17;99796.19;;;8.13;78.76
58668;BME280;59852;43.086;25.634;2023-02-28T10:09:03;99790.56;;;8.03;78.89
58668;BME280;59852;43.086;25.634;2023-02-28T10:11:29;99793.41;;;8.18;79.15
58668;BME280;59852;43.086;25.634;2023-02-28T10:14:05;99794.03;;;8.23;78.35
58668;BME280;59852;43.086;25.634;2023-02-28T10:19:04;99792.16;;;8.26;78.46
58668;BME280;59852;43.086;25.634;2023-02-28T10:24:35;99770.50;;;8.24;78.66
58668;BME280;59852;43.086;25.634;2023-02-28T10:27:06;99771.31;;;8.06;78.55
58668;BME280;59852;43.086;25.634;2023-02-28T10:29:36;99757.88;;;8.15;78.62
58668;BME280;59852;43.086;25.634;2023-02-28T10:32:02;99762.19;;;8.37;78.49
58668;BME280;59852;43.086;25.634;2023-02-28T10:34:28;99750.03;;;8.36;78.35
58668;BME280;59852;43.086;25.634;2023-02-28T10:36:54;99750.91;;;8.36;78.13
58668;BME280;59852;43.086;25.634;2023-02-28T10:39:39;99749.16;;;8.37;78.17
58668;BME280;59852;43.086;25.634;2023-02-28T10:42:05;99744.78;;;8.37;78.40
58668;BME280;59852;43.086;25.634;2023-02-28T10:44:43;99745.63;;;8.38;78.35
58668;BME280;59852;43.086;25.634;2023-02-28T10:47:13;99741.50;;;8.32;78.28
58668;BME280;59852;43.086;25.634;2023-02-28T10:49:39;99750.16;;;8.32;79.16
58668;BME280;59852;43.086;25.634;2023-02-28T10:52:11;99745.25;;;8.26;79.38
58668;BME280;59852;43.086;25.634;2023-02-28T10:54:37;99751.41;;;8.24;79.27
58668;BME280;59852;43.086;25.634;2023-02-28T10:59:34;99740.03;;;8.26;79.71
58668;BME280;59852;43.086;25.634;2023-02-28T11:02:00;99738.97;;;8.30;79.51
58668;BME280;59852;43.086;25.634;2023-02-28T11:09:31;99732.25;;;8.25;80.00
58668;BME280;59852;43.086;25.634;2023-02-28T11:11:57;99724.59;;;8.22;79.83
58668;BME280;59852;43.086;25.634;2023-02-28T11:14:57;99729.78;;;8.22;79.76
58668;BME280;59852;43.086;25.634;2023-02-28T11:17:19;99725.00;;;8.13;79.81
58668;BME280;59852;43.086;25.634;2023-02-28T11:19:45;99711.97;;;8.13;80.41
58668;BME280;59852;43.086;25.634;2023-02-28T11:22:15;99713.25;;;8.23;79.99
58668;BME280;59852;43.086;25.634;2023-02-28T11:24:44;99715.00;;;8.22;79.52
58668;BME280;59852;43.086;25.634;2023-02-28T11:29:54;99714.00;;;8.25;80.01
58668;BME280;59852;43.086;25.634;2023-02-28T11:32:21;99719.94;;;8.28;79.45
58668;BME280;59852;43.086;25.634;2023-02-28T11:34:48;99714.94;;;8.24;80.44
58668;BME280;59852;43.086;25.634;2023-02-28T11:37:24;99711.03;;;7.95;81.11
58668;BME280;59852;43.086;25.634;2023-02-28T11:39:52;99711.97;;;7.94;81.67
58668;BME280;59852;43.086;25.634;2023-02-28T11:42:30;99712.47;;;8.21;80.69
58668;BME280;59852;43.086;25.634;2023-02-28T11:52:47;99715.56;;;8.10;80.88
58668;BME280;59852;43.086;25.634;2023-02-28T11:55:14;99716.31;;;7.93;81.21
58668;BME280;59852;43.086;25.634;2023-02-28T12:00:19;99711.13;;;8.12;80.39
58668;BME280;59852;43.086;25.634;2023-02-28T12:27:44;99698.31;;;7.89;82.20
58668;BME280;59852;43.086;25.634;2023-02-28T12:33:09;99711.41;;;7.87;81.93
58668;BME280;59852;43.086;25.634;2023-02-28T12:35:58;99705.00;;;7.94;82.40
58668;BME280;59852;43.086;25.634;2023-02-28T12:40:53;99709.97;;;7.80;82.65
58668;BME280;59852;43.086;25.634;2023-02-28T12:43:19;99699.69;;;7.96;82.08
58668;BME280;59852;43.086;25.634;2023-02-28T12:45:56;99683.97;;;7.99;81.60
58668;BME280;59852;43.086;25.634;2023-02-28T12:48:30;99683.59;;;7.69;83.63
58668;BME280;59852;43.086;25.634;2023-02-28T12:50:56;99686.31;;;7.85;82.91
58668;BME280;59852;43.086;25.634;2023-02-28T13:01:01;99689.06;;;7.82;82.55
58668;BME280;59852;43.086;25.634;2023-02-28T13:11:23;99692.13;;;7.52;84.47
58668;BME280;59852;43.086;25.634;2023-02-28T13:13:48;99694.88;;;7.49;85.18
58668;BME280;59852;43.086;25.634;2023-02-28T13:16:22;99703.53;;;7.50;84.91
58668;BME280;59852;43.086;25.634;2023-02-28T13:18:47;99706.47;;;7.22;86.25
58668;BME280;59852;43.086;25.634;2023-02-28T13:21:29;99722.13;;;7.00;87.36
58668;BME280;59852;43.086;25.634;2023-02-28T13:23:57;99709.66;;;7.28;86.41
58668;BME280;59852;43.086;25.634;2023-02-28T13:29:02;99712.75;;;7.16;86.80
58668;BME280;59852;43.086;25.634;2023-02-28T13:31:29;99701.13;;;7.25;86.33
58668;BME280;59852;43.086;25.634;2023-02-28T13:38:54;99702.91;;;6.82;88.93
58668;BME280;59852;43.086;25.634;2023-02-28T13:46:31;99711.00;;;6.74;88.84
58668;BME280;59852;43.086;25.634;2023-02-28T13:49:17;99715.78;;;6.41;90.54
58668;BME280;59852;43.086;25.634;2023-02-28T13:51:43;99704.13;;;6.73;89.88
58668;BME280;59852;43.086;25.634;2023-02-28T13:59:56;99711.66;;;6.57;88.95
58668;BME280;59852;43.086;25.634;2023-02-28T14:02:40;99716.19;;;6.96;88.40
58668;BME280;59852;43.086;25.634;2023-02-28T14:05:19;99707.69;;;6.71;88.68
58668;BME280;59852;43.086;25.634;2023-02-28T14:07:54;99702.56;;;6.69;89.05
58668;BME280;59852;43.086;25.634;2023-02-28T14:10:31;99702.44;;;6.72;88.62
58668;BME280;59852;43.086;25.634;2023-02-28T14:13:01;99699.47;;;6.81;88.95
58668;BME280;59852;43.086;25.634;2023-02-28T14:17:55;99697.97;;;6.54;89.96
58668;BME280;59852;43.086;25.634;2023-02-28T14:20:22;99693.03;;;6.68;88.72
58668;BME280;59852;43.086;25.634;2023-02-28T14:27:47;99691.91;;;6.31;90.64
58668;BME280;59852;43.086;25.634;2023-02-28T14:30:18;99699.28;;;5.97;92.34
58668;BME280;59852;43.086;25.634;2023-02-28T14:35:42;99705.00;;;6.28;91.23
58668;BME280;59852;43.086;25.634;2023-02-28T14:38:18;99712.53;;;6.80;89.50
58668;BME280;59852;43.086;25.634;2023-02-28T14:40:46;99712.75;;;6.30;91.06
58668;BME280;59852;43.086;25.634;2023-02-28T14:43:22;99718.06;;;6.27;91.89
58668;BME280;59852;43.086;25.634;2023-02-28T14:45:49;99714.53;;;6.06;92.63
58668;BME280;59852;43.086;25.634;2023-02-28T14:48:15;99727.03;;;6.18;93.31
58668;BME280;59852;43.086;25.634;2023-02-28T14:50:41;99723.53;;;6.19;92.75
58668;BME280;59852;43.086;25.634;2023-02-28T14:53:15;99736.41;;;5.99;93.40
58668;BME280;59852;43.086;25.634;2023-02-28T14:55:46;99727.69;;;6.47;91.11
58668;BME280;59852;43.086;25.634;2023-02-28T14:58:50;99732.16;;;6.21;92.88
58668;BME280;59852;43.086;25.634;2023-02-28T15:01:03;99741.28;;;6.31;91.49
58668;BME280;59852;43.086;25.634;2023-02-28T15:05:58;99745.78;;;6.50;90.45
58668;BME280;59852;43.086;25.634;2023-02-28T15:08:24;99740.03;;;6.18;91.03
58668;BME280;59852;43.086;25.634;2023-02-28T15:10:58;99743.13;;;6.51;90.58
58668;BME280;59852;43.086;25.634;2023-02-28T15:13:47;99744.81;;;6.52;89.90
58668;BME280;59852;43.086;25.634;2023-02-28T15:16:12;99753.47;;;6.06;92.69
58668;BME280;59852;43.086;25.634;2023-02-28T15:21:17;99736.59;;;6.63;89.63
58668;BME280;59852;43.086;25.634;2023-02-28T15:23:44;99740.75;;;6.45;89.42
58668;BME280;59852;43.086;25.634;2023-02-28T15:26:16;99740.03;;;6.18;91.28
58668;BME280;59852;43.086;25.634;2023-02-28T15:28:44;99738.91;;;6.25;90.28
58668;BME280;59852;43.086;25.634;2023-02-28T15:34:06;99736.47;;;6.66;88.48
58668;BME280;59852;43.086;25.634;2023-02-28T15:36:33;99742.97;;;6.32;90.47
58668;BME280;59852;43.086;25.634;2023-02-28T15:39:02;99754.34;;;6.30;90.96